Rain From: 21-07-2018 02:00 Until: 16:00 warning for: Rain Level: Yellow info button
suomi:
Sadevaroitus: Aamuyöstä alkaen voi sataa rankasti, yli 20 mm tunnissa.

svenska:
Nederbördsvarning: Från och med efternatten kan det förekomma synnerligen riklig nederbörd, mer än 20 mm i timmen.

english:
Heavy rain warning: From the early morning on heavy rain of more than 20 mm per hour can be expected. 

Forest fire From: 20-07-2018 23:00 Until: 21-07-2018 11:00 warning for: Forest fire Level: Yellow info button
suomi:
Metsäpalovaroitus on voimassa.

svenska:
Varning för skogsbrand gäller.

english:
A forest fire warning is in force. 


Thunder radar more information blitzortung!


Löydät sääaseman tiedot myös:

European Weather Network

Finland Weather Exchange

Weather Underground

AWEKAS



Weather Underground säähistoriasivu

Päivittäin yhteenveto Tou 29, 2017 Yksiköt:  Englantilaiset    Metriset   Molemmat
« Edellinen Päivä
Seuraava Päivä »
Päivittäin Viikoittain Kuukausittain Vuosittain Mukautettu
  Korkea: Matala: Keskiarvo:
Lämpötila: TemperatureC °F 3.0 °F 7.8 °F
Kastepiste: DewpointC °F 0.4 °F 3.5 °F
Kosteus: Humidity % 48 % 74 %
Tuulen nopeus: WindSpeedKMH mph 0.0 mph 2.3 mph
Tuulenpuuska: WindSpeedGustKMH mph - -
Tuuli:- - South
Ilmanpaine: PressurehPa in 1000.6 in -
Sade: 0.0 in    
Historical Graphs
 
 
Taulukkotiedot Tou 29, 2017
Aika Lämpötila Kastepiste Ilmanpaine Tuuli Tuulen nopeus Tuulenpuuska Kosteus Sademäärä (tunneittain)
TemperatureC °F DewpointC °F PressurehPa in Calm     Humidity % HourlyPrecipMM in
00:00 12.9 °F 10.1 °F 1000.9 in SW 3.2 mph 8.0 mph 83 % 0.0 in
00:15 12.5 °F 9.9 °F 1000.6 in SSW 3.2 mph 8.0 mph 84 % 0.0 in
00:30 12.2 °F 9.7 °F 1000.6 in SSW 3.2 mph 8.0 mph 85 % 0.0 in
00:45 11.8 °F 9.5 °F 1000.9 in Calm   8.0 mph 86 % 0.0 in
01:00 11.7 °F 9.4 °F 1001.2 in NW 1.6 mph 12.9 mph 86 % 0.0 in
01:15 11.4 °F 9.4 °F 1001.6 in Calm   6.4 mph 87 % 0.0 in
01:30 11.3 °F 9.2 °F 1001.9 in NNW 4.8 mph 12.9 mph 87 % 0.0 in
02:00 10.9 °F 9.1 °F 1002.3 in NNW 4.8 mph 11.3 mph 89 % 0.0 in
02:15 10.8 °F 9.0 °F 1002.6 in North 3.2 mph 9.7 mph 89 % 0.0 in
02:30 10.7 °F 8.8 °F 1002.6 in North 3.2 mph 9.7 mph 88 % 0.0 in
02:45 10.5 °F 8.3 °F 1002.9 in North 3.2 mph 11.3 mph 86 % 0.0 in
03:00 10.2 °F 7.4 °F 1002.9 in North 4.8 mph 14.5 mph 83 % 0.0 in
03:15 9.8 °F 7.4 °F 1003.3 in North 3.2 mph 8.0 mph 85 % 0.0 in
03:30 8.8 °F 6.6 °F 1003.6 in North 4.8 mph 14.5 mph 86 % 0.0 in
03:45 8.1 °F 5.9 °F 1003.9 in North 4.8 mph 11.3 mph 86 % 0.0 in
04:00 7.4 °F 5.1 °F 1003.9 in North 4.8 mph 9.7 mph 85 % 0.0 in
04:15 6.8 °F 4.7 °F 1004.3 in NNE 1.6 mph 6.4 mph 86 % 0.0 in
04:30 6.6 °F 4.4 °F 1004.3 in North 3.2 mph 9.7 mph 86 % 0.0 in
04:45 6.2 °F 3.7 °F 1004.6 in North 3.2 mph 11.3 mph 84 % 0.0 in
05:00 5.7 °F 3.2 °F 1004.6 in NNE 3.2 mph 9.7 mph 84 % 0.0 in
05:15 5.3 °F 2.7 °F 1005.0 in North 6.4 mph 20.9 mph 83 % 0.0 in
05:30 5.1 °F 2.4 °F 1005.0 in North 4.8 mph 11.3 mph 83 % 0.0 in
05:45 4.8 °F 2.4 °F 1005.3 in North 3.2 mph 9.7 mph 84 % 0.0 in
06:00 4.7 °F 2.2 °F 1005.3 in North 3.2 mph 9.7 mph 84 % 0.0 in
06:15 4.6 °F 2.1 °F 1005.6 in NNE 3.2 mph 9.7 mph 84 % 0.0 in
06:30 4.6 °F 1.9 °F 1005.6 in North 3.2 mph 12.9 mph 83 % 0.0 in
06:45 4.5 °F 2.0 °F 1006.0 in North 4.8 mph 12.9 mph 84 % 0.0 in
07:00 4.4 °F 2.1 °F 1006.3 in North 3.2 mph 11.3 mph 85 % 0.0 in
07:15 4.5 °F 2.0 °F 1006.3 in NNE 4.8 mph 8.0 mph 84 % 0.0 in
07:30 4.6 °F 2.3 °F 1006.7 in North 3.2 mph 11.3 mph 85 % 0.0 in
07:45 4.7 °F 2.4 °F 1006.7 in North 1.6 mph 8.0 mph 85 % 0.0 in
08:00 4.7 °F 2.4 °F 1007.0 in North 3.2 mph 8.0 mph 85 % 0.0 in
08:15 4.8 °F 2.5 °F 1007.0 in North 1.6 mph 6.4 mph 85 % 0.0 in
08:30 4.7 °F 2.1 °F 1007.0 in NNE 3.2 mph 8.0 mph 83 % 0.0 in
08:45 4.5 °F 2.0 °F 1007.3 in North 3.2 mph 9.7 mph 84 % 0.0 in
09:00 4.4 °F 1.9 °F 1007.7 in North 3.2 mph 6.4 mph 84 % 0.0 in
09:15 4.5 °F 2.0 °F 1007.7 in North 3.2 mph 11.3 mph 84 % 0.0 in
09:30 4.8 °F 2.3 °F 1007.7 in North 3.2 mph 11.3 mph 84 % 0.0 in
09:45 5.1 °F 2.4 °F 1008.0 in North 3.2 mph 6.4 mph 83 % 0.0 in
10:00 5.2 °F 2.4 °F 1008.0 in North 3.2 mph 9.7 mph 82 % 0.0 in
10:15 5.2 °F 2.3 °F 1008.4 in North 1.6 mph 8.0 mph 82 % 0.0 in
10:30 5.4 °F 2.6 °F 1008.7 in North 1.6 mph 8.0 mph 82 % 0.0 in
10:45 5.3 °F 2.2 °F 1009.0 in NNE 3.2 mph 8.0 mph 80 % 0.0 in
11:00 5.2 °F 2.4 °F 1009.0 in North 1.6 mph 9.7 mph 82 % 0.0 in
11:15 5.5 °F 2.3 °F 1009.4 in North 3.2 mph 9.7 mph 80 % 0.0 in
11:30 5.6 °F 2.2 °F 1009.4 in North 3.2 mph 11.3 mph 79 % 0.0 in
11:45 5.7 °F 2.3 °F 1010.0 in North 3.2 mph 9.7 mph 79 % 0.0 in
12:00 5.8 °F 2.5 °F 1010.0 in NNE 3.2 mph 11.3 mph 79 % 0.0 in
12:15 6.1 °F 2.7 °F 1009.7 in North 1.6 mph 8.0 mph 79 % 0.0 in
12:30 6.2 °F 2.6 °F 1009.7 in NNW 3.2 mph 9.7 mph 78 % 0.0 in
12:45 6.3 °F 2.8 °F 1010.0 in NNW 1.6 mph 11.3 mph 78 % 0.0 in
13:00 6.1 °F 2.6 °F 1010.4 in North 3.2 mph 9.7 mph 78 % 0.0 in
13:15 6.1 °F 3.1 °F 1010.4 in NNE 3.2 mph 8.0 mph 81 % 0.0 in
13:30 6.7 °F 3.0 °F 1010.4 in NE 1.6 mph 6.4 mph 77 % 0.0 in
13:45 7.2 °F 3.0 °F 1010.7 in North 3.2 mph 8.0 mph 75 % 0.0 in
14:00 7.3 °F 3.3 °F 1010.7 in North 1.6 mph 6.4 mph 76 % 0.0 in
14:15 7.4 °F 3.2 °F 1010.7 in NNW 1.6 mph 9.7 mph 75 % 0.0 in
14:30 8.2 °F 3.9 °F 1010.7 in NNE 3.2 mph 9.7 mph 74 % 0.0 in
14:45 8.8 °F 3.5 °F 1010.7 in NNE 3.2 mph 8.0 mph 69 % 0.0 in
15:00 9.1 °F 3.7 °F 1010.7 in North 3.2 mph 9.7 mph 69 % 0.0 in
15:15 9.4 °F 3.4 °F 1010.4 in North 1.6 mph 8.0 mph 66 % 0.0 in
15:30 9.5 °F 3.9 °F 1010.4 in NNW 3.2 mph 9.7 mph 68 % 0.0 in
15:45 9.8 °F 3.5 °F 1010.4 in North 3.2 mph 8.0 mph 65 % 0.0 in
16:00 10.2 °F 4.4 °F 1010.4 in North 3.2 mph 8.0 mph 67 % 0.0 in
16:15 10.4 °F 3.2 °F 1010.4 in NNW 1.6 mph 9.7 mph 61 % 0.0 in
16:30 10.8 °F 4.0 °F 1010.4 in NE 1.6 mph 6.4 mph 63 % 0.0 in
16:45 11.2 °F 3.0 °F 1010.0 in Calm   6.4 mph 57 % 0.0 in
17:00 10.9 °F 2.7 °F 1010.4 in NNE 1.6 mph 8.0 mph 57 % 0.0 in
17:15 11.2 °F 2.5 °F 1010.4 in NE 1.6 mph 8.0 mph 55 % 0.0 in
17:30 11.1 °F 2.7 °F 1010.0 in NNW 1.6 mph 11.3 mph 56 % 0.0 in
17:45 11.4 °F 2.4 °F 1010.0 in North 3.2 mph 9.7 mph 54 % 0.0 in
18:00 11.4 °F 2.1 °F 1010.0 in Calm   4.8 mph 53 % 0.0 in
18:15 11.4 °F 1.9 °F 1010.4 in NNW 3.2 mph 9.7 mph 52 % 0.0 in
18:30 11.2 °F 0.6 °F 1010.4 in North 3.2 mph 14.5 mph 48 % 0.0 in
18:45 11.1 °F 1.3 °F 1010.4 in NNE 1.6 mph 6.4 mph 51 % 0.0 in
19:00 10.9 °F 0.9 °F 1010.4 in North 1.6 mph 6.4 mph 50 % 0.0 in
19:15 10.9 °F 2.0 °F 1010.4 in Calm   6.4 mph 54 % 0.0 in
19:30 11.3 °F 2.6 °F 1010.0 in Calm     55 % 0.0 in
19:45 11.3 °F 2.6 °F 1010.0 in Calm   1.6 mph 55 % 0.0 in
20:00 11.2 °F 3.0 °F 1010.0 in Calm   1.6 mph 57 % 0.0 in
20:15 10.8 °F 2.8 °F 1010.0 in Calm   1.6 mph 58 % 0.0 in
20:30 10.6 °F 2.9 °F 1010.0 in Calm     59 % 0.0 in
20:45 10.3 °F 1.9 °F 1010.0 in Calm     56 % 0.0 in
21:00 9.8 °F 2.1 °F 1010.0 in Calm     59 % 0.0 in
21:15 9.3 °F 2.2 °F 1010.0 in Calm     61 % 0.0 in
21:30 8.9 °F 1.5 °F 1010.0 in Calm     60 % 0.0 in
21:45 8.6 °F 1.0 °F 1010.0 in Calm     59 % 0.0 in
22:00 8.3 °F 2.3 °F 1010.0 in Calm     66 % 0.0 in
22:15 7.5 °F 2.6 °F 1010.4 in Calm     71 % 0.0 in
22:30 6.5 °F 2.4 °F 1010.4 in Calm     75 % 0.0 in
22:45 5.6 °F 1.8 °F 1010.4 in Calm     77 % 0.0 in
23:00 4.7 °F 1.5 °F 1010.4 in Calm     80 % 0.0 in
23:15 4.0 °F 1.0 °F 1010.7 in Calm     81 % 0.0 in
23:30 3.5 °F 0.7 °F 1010.7 in Calm     82 % 0.0 in
23:45 3.0 °F 0.4 °F 1010.7 in Calm     83 % 0.0 in
Esan sääasema
Terveisin Weather Underground - 2.75 mb

Alkuperäinen skripti  Jim McMurry - jmcmurry@mwt.net Sovitettu myös templatelle  Wim van der Kuil - Leuven-Template.eu

Laitteet joita käytämme:

Sääasema
Davis VP2

Sääasemaohjelma
Cumulus

Sääaseman tietokone
Asus EeePC

Palveluntarjoaja
Suncomet

Davis VP2

Cumulus

Asus EeePC

Suncomet